Woodinville, WA

10:34 AM PST on December 25, 2014 (GMT -0800)
Hollywood Hill | Change Station
CLOSE
Current Station
Personal Weather Station
Location: Woodinville, WA
Elevation: 510 ft
Nearby Weather Stations

Elev 510 ft 47.75 °N, 122.13 °W | Updated 4 seconds ago

Mostly Cloudy
Mostly Cloudy
39.7 °F
Feels Like 40 °F
N
0.0
Wind Variable Wind from NNW
Gusts 0.0 mph

Today
High -- | Low -- °F
--% Chance of Precip.
Yesterday
High -- | Low -- °F
Precip. -- in
7:56 AM 4:21 PM
Waxing Crescent, 18% visible
Pressure 30.21 in
Visibility 10.0 miles
Clouds Mostly Cloudy 2400 ft
Windchill 40 °F
Dew Point 32 °F
Humidity 78%
Rainfall 0.47 in
Snow Depth Not available.
UV 0 out of 12
Pollen 1.00 out of 12
Air Quality Not available.
Flu Activity Not available.
METAR KPAE 251753Z 17005KT 10SM BKN024 04/02 A3020 RMK AO2 SLP229 60019 T00390017 10050 20033 53019

More Conditions Fewer Conditions

Pressure 30.21 in
Visibility 10.0 miles
Clouds Mostly Cloudy 2400 ft
Windchill 40 °F
Dew Point 32 °F
Humidity 78%
Rainfall 0.47 in
Snow Depth Not available.
UV 0 out of 12
Pollen 1.00 out of 12
Air Quality Not available.
Flu Activity Not available.
METAR KPAE 251753Z 17005KT 10SM BKN024 04/02 A3020 RMK AO2 SLP229 60019 T00390017 10050 20033 53019

More Conditions Fewer Conditions

10-Day Weather Forecast

Almanac

Astronomy

Dec. 25, 2014 Rise Set
Actual Time
Civil Twilight
Nautical Twilight
Astronomical Twilight
Moon
Length of Visible Light
Length of Day
Tomorrow will be .
, % of the Moon is Illuminated

Today's Extremes

State Highs State Lows

Community

WunderPhotos

Upload Photos

1,780,357 photos uploaded!

WunderBlogs® & News

Nearby

Air Quality

  Air Quality AQ Index Pollutant
Not available.

Snow Depth

Station Depth Elevation

Earthquake Activity

City Distance Mag. Time & Date
Minimum magnitude displayed is 2.5.

Coastal Water Temperatures

Place Temperature

Nearby Weather Stations